This is the latest recevied weather packets stored in our database for station/object LA9TLA-1. If no packets are shown the sender has not sent any weather packets the latest 10 day(s).
| Time | Temp. | Humidity | Pressure | Rain* | Wind** | Luminosity | Snow |
|---|---|---|---|---|---|---|---|
| 1788375900 | 12.22° C | 10% | 1003.2 hPa | 0 mm | - | - | - |
| 1788370502 | 12.78° C | 10% | 1003.1 hPa | 0 mm | - | - | - |
| 1788365101 | 13.33° C | 10% | 1003.1 hPa | 0 mm | - | - | - |
| 1788359702 | 13.89° C | 10% | 1003.4 hPa | 0 mm | - | - | - |
| 1788356101 | 15° C | 10% | 1003.1 hPa | 0 mm | - | - | - |
| 1788354303 | 14.44° C | 10% | 1003 hPa | 0 mm | - | - | - |
| 1788352502 | 14.44° C | 10% | 1002.6 hPa | 0 mm | - | - | - |
| 1788348900 | 13.89° C | 82% | 1002.2 hPa | 0 mm | - | - | - |
| 1788347102 | 13.33° C | 99% | 1002.3 hPa | 0 mm | - | - | - |
| 1788345302 | 12.78° C | 99% | 1002 hPa | 0 mm | - | - | - |
| 1788343501 | 14.44° C | 47% | 1001.9 hPa | 0 mm | - | - | - |
| 1788341703 | 14.44° C | 70% | 1001.7 hPa | 0 mm | - | - | - |
| 1788338101 | 15° C | 23% | 1001.3 hPa | 0 mm | - | - | - |
| 1788336300 | 15° C | 45% | 1001.2 hPa | 0.25 mm | - | - | - |
| 1788334504 | 14.44° C | 85% | 1000.7 hPa | 0.25 mm | - | - | - |
| 1788332702 | 13.89° C | 99% | 1000.6 hPa | 0 mm | - | - | - |
| 1788330901 | 13.33° C | 99% | 1000.3 hPa | 0 mm | - | - | - |
| 1788329103 | 12.78° C | 99% | 1000.1 hPa | 0 mm | - | - | - |
| 1788327302 | 12.78° C | 99% | 999.9 hPa | 0.25 mm | - | - | - |
| 1788325502 | 12.78° C | 99% | 1000 hPa | 0.51 mm | - | - | - |
| 1788302103 | 13.89° C | 99% | 1000.2 hPa | 0 mm | - | - | - |
| 1788298502 | 14.44° C | 99% | 999.3 hPa | 0.25 mm | - | - | - |
| 1788293103 | 13.89° C | 99% | 998.8 hPa | 0.76 mm | - | - | - |
| 1788289501 | 13.89° C | 99% | 999.5 hPa | 0 mm | - | - | - |
| 1788287701 | 14.44° C | 99% | 1000 hPa | 0 mm | - | - | - |
* Rain latest hour (hover to see other rain measurements)
** Current wind speed in m/s (hover to see current wind gust speed)